Time;durP1;ratioP1;P1;durP2;ratioP2;P2;SDS_P1;SDS_P2;PMS_P1;PMS_P2;Temp;Humidity;BMP_temperature;BMP_pressure;BME280_temperature;BME280_humidity;BME280_pressure;Samples;Min_cycle;Max_cycle;Signal;HPM_P1;HPM_P2
2022/11/21 00:00:50;;;;;;;51.30;25.00;;;;;;;-0.29;100.00;99819.86;1631251;87;21067;-67
2022/11/21 00:03:16;;;;;;;56.68;27.85;;;;;;;-0.17;100.00;99812.98;1669042;85;21036;-64
2022/11/21 00:05:46;;;;;;;53.15;27.02;;;;;;;-0.11;100.00;99814.29;1669342;86;21018;-65
2022/11/21 00:08:17;;;;;;;51.95;25.40;;;;;;;-0.16;100.00;99810.41;1669454;86;26725;-65
2022/11/21 00:10:44;;;;;;;42.98;22.62;;;;;;;-0.14;100.00;99820.73;1669716;86;21034;-64
2022/11/21 00:13:18;;;;;;;55.78;25.37;;;;;;;0.01;100.00;99820.77;1669216;85;21787;-64
2022/11/21 00:15:47;;;;;;;67.58;37.95;;;;;;;0.05;100.00;99821.20;1669429;85;21544;-65
2022/11/21 00:18:14;;;;;;;48.50;24.12;;;;;;;-0.04;100.00;99816.02;1669173;86;21083;-65
2022/11/21 00:20:41;;;;;;;51.95;25.40;;;;;;;-0.17;100.00;99804.77;1669141;86;21076;-66
2022/11/21 00:23:08;;;;;;;49.42;26.15;;;;;;;-0.06;100.00;99802.20;1669137;86;21068;-65
2022/11/21 00:25:34;;;;;;;48.92;24.32;;;;;;;-0.17;100.00;99805.21;1669568;85;21124;-65
2022/11/21 00:28:04;;;;;;;46.48;22.60;;;;;;;-0.18;100.00;99800.88;1669364;86;21065;-66
2022/11/21 00:30:32;;;;;;;46.20;23.27;;;;;;;-0.08;100.00;99796.16;1669424;86;21077;-65
2022/11/21 00:32:58;;;;;;;57.53;28.30;;;;;;;-0.05;100.00;99793.56;1669277;86;21056;-64
2022/11/21 00:35:26;;;;;;;51.05;26.23;;;;;;;-0.02;100.00;99806.53;1669436;86;21104;-64
2022/11/21 00:37:54;;;;;;;52.55;26.23;;;;;;;-0.01;100.00;99796.59;1669264;86;21273;-64
2022/11/21 00:40:20;;;;;;;48.65;23.47;;;;;;;-0.04;100.00;99780.63;1669132;86;21046;-65
2022/11/21 00:42:48;;;;;;;55.25;26.50;;;;;;;0.04;100.00;99779.33;1669160;86;21061;-65
2022/11/21 00:45:15;;;;;;;51.15;24.80;;;;;;;0.06;100.00;99780.20;1669320;86;21113;-65
2022/11/21 00:47:43;;;;;;;51.92;25.52;;;;;;;0.10;100.00;99778.05;1669312;86;21159;-64
2022/11/21 00:50:10;;;;;;;52.43;26.52;;;;;;;0.08;100.00;99764.23;1669093;86;22080;-65
2022/11/21 00:52:38;;;;;;;49.95;25.12;;;;;;;0.22;100.00;99753.86;1669214;86;21037;-65
2022/11/21 00:55:05;;;;;;;45.50;22.37;;;;;;;0.17;100.00;99753.87;1669036;86;21145;-64
2022/11/21 00:57:32;;;;;;;53.13;25.68;;;;;;;0.16;100.00;99752.16;1669051;86;21025;-65
2022/11/21 00:59:58;;;;;;;48.52;24.02;;;;;;;0.22;100.00;99762.08;1669038;86;21120;-65
2022/11/21 01:02:25;;;;;;;55.28;26.48;;;;;;;0.19;100.00;99759.91;1658999;84;21158;-65
2022/11/21 01:04:51;;;;;;;52.05;24.70;;;;;;;0.18;100.00;99763.38;1667335;86;21045;-64
2022/11/21 01:07:18;;;;;;;52.15;25.95;;;;;;;0.15;100.00;99760.77;1637309;87;21056;-65
2022/11/21 01:09:44;;;;;;;50.03;25.12;;;;;;;0.04;100.00;99759.91;1634336;87;21569;-66
2022/11/21 01:12:12;;;;;;;46.33;24.37;;;;;;;0.01;100.00;99768.98;1634559;87;21716;-65
2022/11/21 01:14:39;;;;;;;61.55;30.60;;;;;;;0.04;100.00;99767.67;1634542;85;21779;-65
2022/11/21 01:17:05;;;;;;;55.75;24.77;;;;;;;-0.06;100.00;99758.20;1634311;87;21099;-65
2022/11/21 01:19:34;;;;;;;56.55;25.30;;;;;;;0.00;100.00;99763.39;1637359;87;21165;-65
2022/11/21 01:22:00;;;;;;;48.28;24.50;;;;;;;0.00;100.00;99765.98;1634326;87;21353;-65
2022/11/21 01:24:27;;;;;;;54.10;25.43;;;;;;;0.15;100.00;99755.59;1634567;87;21113;-65
2022/11/21 01:26:54;;;;;;;52.38;25.12;;;;;;;0.09;100.00;99750.44;1634458;87;21621;-65
2022/11/21 01:29:21;;;;;;;46.35;22.82;;;;;;;0.04;100.00;99752.14;1634450;87;21082;-65
2022/11/21 01:31:48;;;;;;;52.55;25.08;;;;;;;0.15;100.00;99749.13;1637058;87;21102;-65
2022/11/21 01:34:15;;;;;;;52.75;23.70;;;;;;;0.14;100.00;99747.41;1637284;87;21513;-65
2022/11/21 01:36:43;;;;;;;57.35;26.48;;;;;;;0.10;100.00;99749.56;1637331;86;21032;-65
2022/11/21 01:39:10;;;;;;;52.98;24.80;;;;;;;0.25;100.00;99746.08;1637413;87;21268;-65
2022/11/21 01:41:40;;;;;;;60.73;27.05;;;;;;;0.14;100.00;99751.73;1637259;87;21124;-66
2022/11/21 01:44:15;;;;;;;52.10;24.57;;;;;;;0.16;100.00;99760.33;1637431;86;21116;-66
2022/11/21 01:46:43;;;;;;;66.92;29.80;;;;;;;0.12;100.00;99740.07;1637128;87;21088;-65
2022/11/21 01:49:23;;;;;;;59.73;26.45;;;;;;;0.24;100.00;99733.16;1637582;87;21071;-65
2022/11/21 01:52:09;;;;;;;64.82;28.00;;;;;;;-0.01;100.00;99725.41;1637716;87;21255;-65
2022/11/21 01:55:00;;;;;;;62.10;27.73;;;;;;;0.13;100.00;99726.25;1637428;87;21599;-65
2022/11/21 01:57:39;;;;;;;63.08;26.15;;;;;;;0.20;100.00;99724.07;1636221;87;21121;-65
2022/11/21 02:00:23;;;;;;;54.20;25.55;;;;;;;0.20;100.00;99722.78;1637528;87;21080;-65
2022/11/21 02:02:56;;;;;;;59.23;27.62;;;;;;;0.22;100.00;99729.70;1638122;86;21091;-65
2022/11/21 02:05:26;;;;;;;65.32;27.50;;;;;;;0.18;100.00;99720.66;1637402;87;21140;-65
2022/11/21 02:07:57;;;;;;;60.67;28.42;;;;;;;0.31;100.00;99724.50;1637342;87;21055;-65
2022/11/21 02:10:23;;;;;;;61.37;28.65;;;;;;;0.32;100.00;99728.80;1637254;87;21411;-65
2022/11/21 02:12:53;;;;;;;59.53;27.35;;;;;;;0.37;100.00;99737.45;1637366;87;21662;-63
2022/11/21 02:15:21;;;;;;;57.95;27.42;;;;;;;0.27;100.00;99745.65;1642086;87;21439;-65
2022/11/21 02:17:49;;;;;;;70.03;29.75;;;;;;;0.37;100.00;99745.23;1643105;87;21377;-65
2022/11/21 02:20:18;;;;;;;64.85;27.32;;;;;;;0.39;100.00;99753.83;1642822;87;21095;-65
2022/11/21 02:23:08;;;;;;;69.97;29.92;;;;;;;0.28;100.00;99765.97;1642815;87;21531;-65
2022/11/21 02:25:40;;;;;;;62.75;28.42;;;;;;;0.38;100.00;99767.66;1642860;87;21056;-65
2022/11/21 02:28:19;;;;;;;54.77;27.60;;;;;;;0.35;100.00;99753.43;1642924;86;21067;-65
2022/11/21 02:30:45;;;;;;;63.80;28.75;;;;;;;0.32;100.00;99741.75;1642952;87;21171;-65
2022/11/21 02:33:13;;;;;;;62.27;27.37;;;;;;;0.39;100.00;99737.88;1642862;87;21571;-64
2022/11/21 02:35:40;;;;;;;65.20;27.82;;;;;;;0.26;100.00;99743.94;1642771;87;21088;-65
2022/11/21 02:38:19;;;;;;;75.50;30.57;;;;;;;0.38;100.00;99745.20;1642624;87;21124;-65
2022/11/21 02:41:10;;;;;;;62.55;28.90;;;;;;;0.48;100.00;99740.86;1641396;87;21076;-65
2022/11/21 02:43:50;;;;;;;58.10;26.52;;;;;;;0.32;100.00;99746.94;1642822;87;21203;-65
2022/11/21 02:46:16;;;;;;;65.57;30.15;;;;;;;0.39;100.00;99760.30;1642689;87;21060;-66
2022/11/21 02:48:43;;;;;;;58.25;26.62;;;;;;;0.42;100.00;99757.73;1642669;87;21068;-65
2022/11/21 02:51:10;;;;;;;63.40;29.67;;;;;;;0.48;100.00;99760.73;1642764;87;21107;-66
2022/11/21 02:53:38;;;;;;;66.42;29.52;;;;;;;0.54;100.00;99764.17;1642856;87;21059;-67
2022/11/21 02:56:04;;;;;;;66.97;30.45;;;;;;;0.63;100.00;99754.22;1642564;87;21312;-65
2022/11/21 02:58:31;;;;;;;64.37;28.67;;;;;;;0.56;100.00;99744.30;1642694;87;21076;-65
2022/11/21 03:00:58;;;;;;;64.15;28.95;;;;;;;0.49;100.00;99744.33;1634379;86;21143;-65
2022/11/21 03:03:24;;;;;;;66.40;29.32;;;;;;;0.51;100.00;99745.20;1642818;86;21084;-64
2022/11/21 03:05:51;;;;;;;74.32;29.65;;;;;;;0.36;100.00;99737.86;1642730;87;21071;-66
2022/11/21 03:08:17;;;;;;;67.05;29.50;;;;;;;0.31;100.00;99740.05;1642748;87;21233;-66
2022/11/21 03:10:45;;;;;;;69.50;29.57;;;;;;;0.46;100.00;99754.28;1642585;87;21056;-66
2022/11/21 03:13:12;;;;;;;65.83;28.62;;;;;;;0.43;100.00;99747.78;1642748;87;21059;-65
2022/11/21 03:15:40;;;;;;;66.60;28.32;;;;;;;0.46;100.00;99740.02;1635400;85;21082;-65
2022/11/21 03:18:06;;;;;;;65.90;30.05;;;;;;;0.47;100.00;99743.03;1634478;87;21122;-63
2022/11/21 03:20:33;;;;;;;63.58;28.42;;;;;;;0.51;100.00;99733.09;1634320;87;21231;-64
2022/11/21 03:23:02;;;;;;;68.35;29.25;;;;;;;0.29;100.00;99732.27;1623653;87;21041;-65
2022/11/21 03:25:30;;;;;;;60.92;27.90;;;;;;;0.51;100.00;99733.09;1613210;88;21124;-65
2022/11/21 03:27:58;;;;;;;66.97;29.32;;;;;;;0.45;100.00;99744.77;1613296;88;22172;-65
2022/11/21 03:30:26;;;;;;;60.55;28.23;;;;;;;0.46;100.00;99752.09;1613272;88;21585;-66
2022/11/21 03:32:56;;;;;;;63.15;29.25;;;;;;;0.49;100.00;99755.55;1613168;88;21553;-64
2022/11/21 03:35:23;;;;;;;75.10;31.40;;;;;;;0.53;100.00;99752.09;1613383;88;21124;-64
2022/11/21 03:37:49;;;;;;;74.77;31.50;;;;;;;0.40;100.00;99756.43;1613327;88;21564;-64
2022/11/21 03:40:16;;;;;;;69.87;31.07;;;;;;;0.41;100.00;99760.77;1613319;88;21144;-66
2022/11/21 03:42:43;;;;;;;69.53;30.62;;;;;;;0.38;100.00;99758.59;1613312;88;21104;-65
2022/11/21 03:45:10;;;;;;;66.82;28.50;;;;;;;0.40;100.00;99760.75;1613251;88;21268;-65
2022/11/21 03:47:38;;;;;;;71.77;31.15;;;;;;;0.48;100.00;99762.88;1613282;88;21566;-65
2022/11/21 03:50:05;;;;;;;67.25;29.60;;;;;;;0.42;100.00;99764.20;1613491;88;21128;-66
2022/11/21 03:52:32;;;;;;;63.90;28.57;;;;;;;0.42;100.00;99756.44;1613158;88;21041;-66
2022/11/21 03:54:59;;;;;;;68.70;30.32;;;;;;;0.43;100.00;99752.97;1613383;88;21073;-65
2022/11/21 03:57:25;;;;;;;58.98;26.73;;;;;;;0.44;100.00;99748.23;1613191;88;21235;-65
2022/11/21 03:59:51;;;;;;;65.37;29.18;;;;;;;0.44;100.00;99750.82;1613376;88;21081;-66
2022/11/21 04:02:18;;;;;;;69.12;30.27;;;;;;;0.33;100.00;99738.32;1625755;87;21575;-65
2022/11/21 04:04:44;;;;;;;61.70;27.75;;;;;;;0.40;100.00;99737.00;1634539;87;21061;-66
2022/11/21 04:07:11;;;;;;;73.97;30.77;;;;;;;0.45;100.00;99735.69;1634268;87;21102;-65
2022/11/21 04:09:37;;;;;;;68.95;30.08;;;;;;;0.51;100.00;99729.66;1634597;87;21138;-65
2022/11/21 04:12:05;;;;;;;62.80;28.30;;;;;;;0.64;100.00;99735.20;1634191;87;21503;-65
2022/11/21 04:14:33;;;;;;;64.22;29.35;;;;;;;0.55;100.00;99743.00;1635300;87;21012;-64
2022/11/21 04:17:01;;;;;;;69.95;29.70;;;;;;;0.48;100.00;99747.77;1637216;87;21092;-65
2022/11/21 04:19:29;;;;;;;64.27;27.27;;;;;;;0.66;100.00;99745.58;1637350;87;21095;-65
2022/11/21 04:21:56;;;;;;;71.07;28.95;;;;;;;0.67;100.00;99731.33;1637439;87;21627;-65
2022/11/21 04:24:22;;;;;;;71.10;28.77;;;;;;;0.78;100.00;99736.45;1637295;87;21036;-65
2022/11/21 04:26:49;;;;;;;71.77;29.90;;;;;;;0.76;100.00;99738.19;1637358;87;21612;-65
2022/11/21 04:29:15;;;;;;;69.35;29.12;;;;;;;0.63;100.00;99723.98;1637389;87;21017;-64
2022/11/21 04:31:42;;;;;;;69.17;30.52;;;;;;;0.79;100.00;99718.31;1637294;87;21608;-64
2022/11/21 04:34:08;;;;;;;69.70;29.40;;;;;;;0.61;100.00;99715.34;1637389;87;21597;-65
2022/11/21 04:36:35;;;;;;;65.62;28.90;;;;;;;0.54;100.00;99714.94;1637567;87;21084;-65
2022/11/21 04:39:01;;;;;;;66.12;29.32;;;;;;;0.66;100.00;99702.81;1637330;87;21076;-65
2022/11/21 04:41:28;;;;;;;70.57;29.37;;;;;;;0.77;100.00;99699.75;1637338;87;21052;-65
2022/11/21 04:43:54;;;;;;;67.32;30.02;;;;;;;0.74;100.00;99688.11;1637704;87;21053;-65
2022/11/21 04:46:21;;;;;;;65.30;28.23;;;;;;;0.74;100.00;99692.00;1637431;87;21234;-65
2022/11/21 04:48:47;;;;;;;59.75;26.52;;;;;;;0.76;100.00;99682.45;1637404;87;21076;-65
2022/11/21 04:51:14;;;;;;;65.65;28.12;;;;;;;0.74;100.00;99676.00;1637351;87;21098;-65
2022/11/21 04:53:41;;;;;;;59.55;26.27;;;;;;;0.80;100.00;99673.36;1637425;87;21044;-65
2022/11/21 04:56:08;;;;;;;58.25;26.02;;;;;;;0.79;100.00;99692.39;1637505;87;21115;-65
2022/11/21 04:58:36;;;;;;;64.62;30.17;;;;;;;0.70;100.00;99692.42;1637525;87;21565;-65
2022/11/21 05:01:07;;;;;;;61.60;27.45;;;;;;;0.81;100.00;99693.69;1637668;86;21628;-65
2022/11/21 05:03:35;;;;;;;72.32;30.25;;;;;;;0.67;100.00;99698.93;1638889;87;21061;-65
2022/11/21 05:06:01;;;;;;;61.92;27.95;;;;;;;0.82;100.00;99701.44;1639132;86;21056;-65
2022/11/21 05:08:29;;;;;;;66.05;28.50;;;;;;;0.71;100.00;99704.95;1638921;87;21658;-65
2022/11/21 05:13:42;;;;;;;68.05;29.72;;;;;;;0.70;100.00;99707.98;1638931;87;21064;-65
2022/11/21 05:16:09;;;;;;;61.95;29.02;;;;;;;0.70;100.00;99710.57;1645053;86;21155;-65
2022/11/21 05:18:35;;;;;;;67.00;30.02;;;;;;;0.71;100.00;99690.25;1646666;87;21004;-65
2022/11/21 05:21:02;;;;;;;66.25;29.15;;;;;;;0.76;100.00;99679.45;1646755;87;21094;-65
2022/11/21 05:23:29;;;;;;;70.57;30.37;;;;;;;0.68;100.00;99667.39;1646813;87;21126;-66
2022/11/21 05:25:56;;;;;;;68.25;30.45;;;;;;;0.70;100.00;99665.66;1646625;87;21119;-64
2022/11/21 05:28:22;;;;;;;76.35;32.45;;;;;;;0.70;100.00;99663.06;1646845;86;21095;-65
2022/11/21 05:30:49;;;;;;;81.63;34.08;;;;;;;0.62;100.00;99652.30;1646871;86;21599;-65
2022/11/21 05:36:56;;;;;;;63.80;27.63;;;;;;;-0.62;100.00;99651.24;1795735;79;23202;-65
2022/11/21 05:39:22;;;;;;;68.65;28.95;;;;;;;0.06;100.00;99651.17;1756237;81;21564;-65
2022/11/21 05:41:49;;;;;;;65.62;29.75;;;;;;;0.22;100.00;99652.01;1756061;81;21524;-64
2022/11/21 05:44:15;;;;;;;121.75;52.83;;;;;;;0.12;100.00;99665.42;1756352;81;20894;-65
2022/11/21 05:46:42;;;;;;;91.02;38.85;;;;;;;0.14;100.00;99672.31;1756062;81;21054;-65
2022/11/21 05:49:08;;;;;;;84.75;36.15;;;;;;;0.19;100.00;99673.59;1756264;81;21089;-65
2022/11/21 05:51:37;;;;;;;106.15;40.85;;;;;;;0.13;100.00;99671.87;1756438;81;20980;-65
2022/11/21 05:54:03;;;;;;;83.50;34.40;;;;;;;0.20;100.00;99667.09;1756208;81;21073;-64
2022/11/21 05:56:31;;;;;;;94.87;38.67;;;;;;;0.26;100.00;99661.50;1755957;81;21029;-64
2022/11/21 05:58:57;;;;;;;111.35;50.73;;;;;;;0.32;100.00;99656.28;1756221;81;21541;-65
2022/11/21 06:04:10;;;;;;;69.25;30.82;;;;;;;0.30;100.00;99651.53;1790395;80;21647;-65
2022/11/21 06:06:36;;;;;;;73.05;30.82;;;;;;;0.44;100.00;99652.38;1790834;80;22112;-65
2022/11/21 06:09:04;;;;;;;66.25;27.60;;;;;;;0.39;100.00;99654.98;1790396;80;21012;-65
2022/11/21 06:11:31;;;;;;;103.42;41.60;;;;;;;0.47;100.00;99658.83;1790431;80;21047;-65
2022/11/21 06:13:58;;;;;;;69.32;32.03;;;;;;;0.61;100.00;99657.04;1790546;80;21118;-66
2022/11/21 06:16:25;;;;;;;62.17;27.17;;;;;;;0.63;100.00;99663.08;1790364;80;21577;-65
2022/11/21 06:18:53;;;;;;;72.75;30.65;;;;;;;0.70;100.00;99663.06;1790726;80;21032;-66
2022/11/21 06:21:22;;;;;;;77.85;31.52;;;;;;;0.57;100.00;99655.32;1790450;80;21021;-66
2022/11/21 06:23:54;;;;;;;116.30;51.20;;;;;;;0.56;100.00;99652.31;1790383;80;21023;-66
2022/11/21 06:26:23;;;;;;;119.08;57.10;;;;;;;0.60;100.00;99650.15;1790705;80;21060;-65
2022/11/21 06:28:50;;;;;;;76.47;32.85;;;;;;;0.42;100.00;99659.29;1790579;80;21658;-66
2022/11/21 06:31:26;;;;;;;121.80;38.40;;;;;;;0.61;100.00;99659.63;1790363;80;22096;-65
2022/11/21 06:33:57;;;;;;;75.25;29.30;;;;;;;0.63;100.00;99657.90;1790221;80;21005;-65
2022/11/21 06:36:25;;;;;;;55.85;26.10;;;;;;;0.67;100.00;99648.39;1782944;80;21049;-65
2022/11/21 06:38:53;;;;;;;88.58;35.65;;;;;;;0.75;100.00;99650.94;1784330;80;21497;-65
2022/11/21 06:41:22;;;;;;;71.77;30.12;;;;;;;0.83;100.00;99648.74;1784939;80;21040;-66
2022/11/21 06:43:49;;;;;;;64.32;28.02;;;;;;;0.73;100.00;99647.48;1785281;80;21144;-66
2022/11/21 06:46:17;;;;;;;59.63;27.07;;;;;;;0.71;100.00;99651.81;1784886;80;21536;-65
2022/11/21 06:48:45;;;;;;;51.40;24.63;;;;;;;0.85;100.00;99644.83;1784643;80;21012;-66
2022/11/21 06:51:22;;;;;;;53.13;24.37;;;;;;;0.95;100.00;99630.95;1784540;80;21052;-66
2022/11/21 06:53:56;;;;;;;68.28;28.05;;;;;;;0.98;100.00;99634.81;1784520;80;21520;-66
2022/11/21 06:56:25;;;;;;;77.22;32.00;;;;;;;0.89;100.00;99638.76;1784369;80;21014;-66
2022/11/21 06:58:52;;;;;;;78.78;33.20;;;;;;;0.86;100.00;99646.56;1784567;80;21676;-67
2022/11/21 07:01:19;;;;;;;55.83;27.30;;;;;;;0.84;100.00;99645.70;1779017;80;21123;-66
2022/11/21 07:03:46;;;;;;;64.37;29.02;;;;;;;0.97;100.00;99642.19;1753208;81;20973;-66
2022/11/21 07:06:13;;;;;;;65.15;30.23;;;;;;;1.03;100.00;99649.91;1753626;81;21639;-66
2022/11/21 07:08:40;;;;;;;54.73;25.70;;;;;;;1.09;100.00;99648.17;1753408;81;21212;-67
2022/11/21 07:11:10;;;;;;;55.25;25.62;;;;;;;1.20;100.00;99647.67;1753371;81;21025;-66
2022/11/21 07:13:38;;;;;;;62.03;28.67;;;;;;;1.08;100.00;99652.47;1753782;81;21060;-66
2022/11/21 07:16:07;;;;;;;50.50;24.27;;;;;;;1.17;100.00;99643.77;1753391;81;21036;-66
2022/11/21 07:18:34;;;;;;;60.63;28.15;;;;;;;1.05;100.00;99644.28;1753497;81;21067;-66
2022/11/21 07:21:04;;;;;;;66.90;32.75;;;;;;;1.08;100.00;99659.39;1753403;81;21260;-66
2022/11/21 07:23:32;;;;;;;;;;;;;;;0.97;100.00;99660.33;1756077;81;21020;-66
2022/11/21 07:26:00;;;;;;;61.73;26.77;;;;;;;0.92;100.00;99671.58;1753456;81;20186;-66
2022/11/21 07:28:28;;;;;;;63.20;27.73;;;;;;;0.84;100.00;99680.70;1753827;81;21017;-66
2022/11/21 07:30:56;;;;;;;76.25;30.88;;;;;;;0.82;100.00;99675.95;1753287;81;21056;-67
2022/11/21 07:33:23;;;;;;;65.45;27.37;;;;;;;0.82;100.00;99672.06;1753797;81;21718;-66
2022/11/21 07:35:49;;;;;;;70.62;30.40;;;;;;;0.84;100.00;99688.48;1753413;81;21005;-66
2022/11/21 07:38:16;;;;;;;63.58;29.82;;;;;;;0.92;100.00;99682.84;1753199;81;21040;-66
2022/11/21 07:40:45;;;;;;;72.27;29.40;;;;;;;0.80;100.00;99659.55;1753743;81;21060;-66
2022/11/21 07:43:11;;;;;;;119.50;40.52;;;;;;;0.82;100.00;99655.22;1753784;81;21032;-66
2022/11/21 07:45:38;;;;;;;69.32;28.23;;;;;;;0.97;100.00;99665.52;1753630;81;21092;-66
2022/11/21 07:48:06;;;;;;;65.30;29.57;;;;;;;1.02;100.00;99668.94;1753390;81;21005;-66
2022/11/21 07:50:34;;;;;;;65.92;29.85;;;;;;;1.09;100.00;99657.25;1753747;81;21051;-66
2022/11/21 07:53:05;;;;;;;;;;;;;;;1.12;100.00;99655.92;1755848;81;21647;-66
2022/11/21 07:55:31;;;;;;;75.10;29.92;;;;;;;1.19;100.00;99648.52;1753615;81;20172;-67
2022/11/21 07:58:05;;;;;;;63.52;29.87;;;;;;;1.30;100.00;99657.09;1753285;81;21234;-66
2022/11/21 08:00:33;;;;;;;64.35;28.45;;;;;;;1.34;100.00;99654.91;1753385;81;21017;-66
2022/11/21 08:03:01;;;;;;;61.33;27.87;;;;;;;1.46;100.00;99644.43;1780833;80;21080;-66
2022/11/21 08:05:27;;;;;;;60.73;27.93;;;;;;;1.49;100.00;99649.17;1784936;80;21088;-66
2022/11/21 08:07:55;;;;;;;60.08;28.12;;;;;;;1.44;100.00;99651.80;1784532;80;21072;-66
2022/11/21 08:10:21;;;;;;;63.10;29.82;;;;;;;1.49;100.00;99637.50;1784810;80;21095;-66
2022/11/21 08:12:50;;;;;;;55.73;27.37;;;;;;;1.43;100.00;99640.58;1784602;80;21017;-66
2022/11/21 08:15:16;;;;;;;70.95;31.80;;;;;;;1.43;100.00;99636.68;1784703;80;21049;-66
2022/11/21 08:17:43;;;;;;;65.72;30.05;;;;;;;1.39;100.00;99633.67;1785016;80;21092;-66
2022/11/21 08:20:10;;;;;;;92.05;35.35;;;;;;;1.41;100.00;99646.20;1784729;80;21032;-66
2022/11/21 08:22:39;;;;;;;79.12;33.30;;;;;;;1.53;100.00;99652.17;1784759;80;21192;-66
2022/11/21 08:25:07;;;;;;;96.50;46.37;;;;;;;1.32;100.00;99651.46;1784637;80;21050;-66
2022/11/21 08:27:37;;;;;;;91.47;39.78;;;;;;;1.36;100.00;99654.47;1785051;80;21033;-66
2022/11/21 08:30:09;;;;;;;95.15;38.38;;;;;;;1.42;100.00;99644.02;1784710;80;21620;-66
2022/11/21 08:32:36;;;;;;;87.57;32.90;;;;;;;1.37;100.00;99649.69;1784762;80;21060;-66
2022/11/21 08:35:02;;;;;;;85.38;35.23;;;;;;;1.23;100.00;99654.12;1784719;80;21326;-66
2022/11/21 08:37:30;;;;;;;71.20;30.17;;;;;;;1.16;100.00;99645.96;1784254;80;22221;-66
2022/11/21 08:39:59;;;;;;;71.60;32.00;;;;;;;1.24;100.00;99643.75;1781603;80;21060;-66
2022/11/21 08:42:26;;;;;;;76.53;32.85;;;;;;;1.28;100.00;99643.72;1781921;80;21103;-66
2022/11/21 08:44:53;;;;;;;64.53;28.73;;;;;;;1.37;100.00;99649.69;1781574;80;21087;-66
2022/11/21 08:47:19;;;;;;;73.12;31.62;;;;;;;1.30;100.00;99640.23;1781868;80;21212;-66
2022/11/21 08:49:47;;;;;;;73.78;32.63;;;;;;;1.29;100.00;99646.30;1781613;80;22071;-66
2022/11/21 08:52:16;;;;;;;56.55;27.22;;;;;;;1.33;100.00;99635.02;1781875;80;21047;-66
2022/11/21 08:54:44;;;;;;;72.53;32.70;;;;;;;1.31;100.00;99639.38;1782144;80;21060;-66
2022/11/21 08:57:11;;;;;;;83.97;38.58;;;;;;;1.39;100.00;99627.63;1781730;80;21099;-66
2022/11/21 08:59:38;;;;;;;73.00;33.08;;;;;;;1.43;100.00;99621.11;1781737;80;21532;-67
2022/11/21 09:02:06;;;;;;;74.67;29.80;;;;;;;1.23;100.00;99620.40;1780173;80;21044;-66
2022/11/21 09:04:32;;;;;;;72.27;30.12;;;;;;;1.28;100.00;99605.66;1778693;80;21076;-66
2022/11/21 09:07:00;;;;;;;73.60;31.45;;;;;;;1.41;100.00;99604.69;1778545;80;21021;-66
2022/11/21 09:09:27;;;;;;;70.75;29.55;;;;;;;1.35;100.00;99596.95;1778783;80;21541;-67
2022/11/21 09:11:53;;;;;;;68.92;31.02;;;;;;;1.42;100.00;99593.42;1779026;80;21715;-67
2022/11/21 09:19:57;;;;;;;60.63;28.57;;;;;;;1.70;100.00;99585.39;1778612;80;21065;-66
2022/11/21 09:22:28;;;;;;;68.22;30.77;;;;;;;1.67;100.00;99585.42;1778418;80;21021;-66
2022/11/21 09:24:53;;;;;;;69.47;30.80;;;;;;;1.69;100.00;99588.87;1777629;80;21309;-66
2022/11/21 09:27:21;;;;;;;64.77;30.17;;;;;;;1.71;100.00;99592.31;1778549;80;21477;-66
2022/11/21 09:29:47;;;;;;;61.02;29.48;;;;;;;1.79;100.00;99590.48;1778408;80;21025;-66
2022/11/21 09:32:14;;;;;;;136.03;69.65;;;;;;;1.81;100.00;99588.73;1778769;80;21071;-66
2022/11/21 09:34:41;;;;;;;69.87;33.10;;;;;;;1.82;100.00;99583.98;1778760;80;21084;-66
2022/11/21 09:37:08;;;;;;;75.17;32.15;;;;;;;1.84;100.00;99575.75;1778402;80;21245;-65
2022/11/21 09:39:34;;;;;;;63.83;30.02;;;;;;;1.73;100.00;99587.13;1778680;80;22164;-65
2022/11/21 09:42:28;;;;;;;73.20;31.97;;;;;;;1.79;100.00;99595.69;1778797;80;21021;-65
2022/11/21 09:45:17;;;;;;;62.48;29.30;;;;;;;1.75;100.00;99595.31;1777805;80;21525;-66
2022/11/21 09:47:50;;;;;;;54.53;24.98;;;;;;;1.79;100.00;99598.28;1778651;80;21036;-66
2022/11/21 09:50:37;;;;;;;70.65;30.80;;;;;;;1.64;100.00;99608.83;1778529;80;21135;-66
2022/11/21 09:53:23;;;;;;;53.95;24.98;;;;;;;1.73;100.00;99617.83;1749139;80;22364;-66
2022/11/21 09:55:59;;;;;;;57.98;27.60;;;;;;;1.76;100.00;99598.32;1772236;80;20969;-66
2022/11/21 09:58:43;;;;;;;59.63;27.73;;;;;;;1.81;100.00;99595.23;1778606;80;21588;-66
2022/11/21 10:01:12;;;;;;;56.85;27.55;;;;;;;1.84;100.00;99585.25;1775100;80;21028;-66
2022/11/21 10:03:47;;;;;;;134.43;49.13;;;;;;;1.83;100.00;99580.95;1748066;82;21114;-66
2022/11/21 10:06:26;;;;;;;270.52;90.72;;;;;;;1.76;100.00;99584.04;1746950;82;21077;-65
2022/11/21 10:09:28;;;;;;;101.38;38.83;;;;;;;1.75;100.00;99574.55;1748094;82;21037;-66
2022/11/21 10:15:11;;;;;;;62.35;29.80;;;;;;;1.80;100.00;99570.16;1747662;82;21013;-66
2022/11/21 10:18:24;;;;;;;59.45;30.92;;;;;;;1.78;100.00;99570.61;1747568;82;21161;-66
2022/11/21 10:21:25;;;;;;;53.28;24.95;;;;;;;1.86;100.00;99558.83;1747545;82;21056;-66
2022/11/21 10:24:24;;;;;;;52.55;24.95;;;;;;;1.85;100.00;99552.78;1747775;82;21001;-65
2022/11/21 10:27:01;;;;;;;56.65;25.70;;;;;;;1.90;100.00;99552.73;1739219;82;21068;-64
2022/11/21 15:21:02;;;;;;;14.20;8.90;;;;;;;0.17;100.00;98986.12;1758584;80;23519;-66
2022/11/21 15:23:35;;;;;;;14.33;8.55;;;;;;;0.23;100.00;98995.97;1733408;82;21082;-66
2022/11/21 15:26:02;;;;;;;14.85;8.05;;;;;;;0.19;100.00;99006.38;1733284;82;21127;-67
2022/11/21 15:28:29;;;;;;;16.32;8.90;;;;;;;0.05;100.00;99020.38;1733434;82;20995;-67
2022/11/21 15:31:19;;;;;;;13.50;7.90;;;;;;;0.11;100.00;99023.72;1733309;82;21526;-67
2022/11/21 15:34:02;;;;;;;19.87;13.03;;;;;;;0.14;100.00;99027.59;1733103;82;21112;-67
2022/11/21 15:36:31;;;;;;;12.88;8.75;;;;;;;0.10;100.00;99025.91;1733700;82;21001;-70
2022/11/21 15:39:10;;;;;;;13.68;8.48;;;;;;;0.06;100.00;99020.34;1733528;82;21216;-68
2022/11/21 15:41:36;;;;;;;14.28;8.70;;;;;;;0.04;100.00;98998.80;1733671;82;21487;-69
2022/11/21 15:44:10;;;;;;;15.13;9.03;;;;;;;0.04;100.00;98991.47;1733532;82;21037;-66
2022/11/21 15:46:41;;;;;;;15.75;8.80;;;;;;;0.05;100.00;98990.17;1733381;82;21065;-67
2022/11/21 15:49:10;;;;;;;17.73;11.78;;;;;;;0.10;100.00;98990.11;1733339;82;21116;-67
2022/11/21 15:51:42;;;;;;;22.90;14.33;;;;;;;0.07;100.00;99002.66;1733402;82;21109;-67
2022/11/21 15:54:15;;;;;;;53.13;35.95;;;;;;;0.12;100.00;99015.09;1732885;82;21057;-68
2022/11/21 15:56:41;;;;;;;33.92;21.02;;;;;;;0.16;100.00;99009.42;1733492;82;21646;-67
2022/11/21 15:59:09;;;;;;;23.07;15.18;;;;;;;0.19;100.00;98998.61;1733087;82;21113;-68
2022/11/21 16:01:36;;;;;;;22.52;13.50;;;;;;;0.15;100.00;98985.27;1728613;82;21049;-68
2022/11/21 16:04:07;;;;;;;18.75;10.80;;;;;;;0.19;100.00;98974.01;1717896;83;21219;-68
2022/11/21 16:06:34;;;;;;;14.38;9.00;;;;;;;0.16;100.00;98972.77;1717907;83;21108;-68
2022/11/21 16:09:02;;;;;;;18.25;10.38;;;;;;;0.13;100.00;98957.25;1717994;83;21368;-68
2022/11/21 16:11:31;;;;;;;14.80;8.88;;;;;;;0.11;100.00;98949.09;1693209;83;21058;-67
2022/11/21 16:14:03;;;;;;;13.30;8.30;;;;;;;0.10;100.00;98946.95;1686439;85;21115;-68
2022/11/21 16:16:33;;;;;;;10.63;7.28;;;;;;;0.07;100.00;98922.41;1685864;85;21900;-67
2022/11/21 16:19:01;;;;;;;22.95;13.28;;;;;;;0.05;100.00;98911.22;1685858;84;21112;-68
2022/11/21 16:21:27;;;;;;;29.65;14.58;;;;;;;0.07;100.00;98897.81;1685619;85;21555;-67
2022/11/21 16:23:54;;;;;;;29.57;13.55;;;;;;;0.05;100.00;98898.72;1685678;85;21055;-67
2022/11/21 16:26:21;;;;;;;24.32;13.30;;;;;;;0.13;100.00;98896.86;1685463;85;21068;-69
2022/11/21 16:28:47;;;;;;;21.50;10.45;;;;;;;0.15;100.00;98884.75;1685514;85;21245;-67
2022/11/21 16:31:20;;;;;;;25.25;12.30;;;;;;;0.13;100.00;98882.17;1680730;84;21020;-68
2022/11/21 16:33:46;;;;;;;17.67;9.25;;;;;;;0.11;100.00;98881.34;1685413;84;21095;-68
2022/11/21 16:36:18;;;;;;;19.82;10.20;;;;;;;0.06;100.00;98874.53;1685852;85;21124;-69